sensor_id;sensor_type;location;lat;lon;timestamp;P1;durP1;ratioP1;P2;durP2;ratioP2
22017;SDS011;11173;51.050;7.108;2023-05-27T00:10:40;11.02;;;3.30;;
22017;SDS011;11173;51.050;7.108;2023-05-27T00:30:41;10.27;;;2.90;;
22017;SDS011;11173;51.050;7.108;2023-05-27T00:50:42;7.43;;;3.22;;
22017;SDS011;11173;51.050;7.108;2023-05-27T01:20:47;9.30;;;2.45;;
22017;SDS011;11173;51.050;7.108;2023-05-27T01:30:50;8.07;;;2.70;;
22017;SDS011;11173;51.050;7.108;2023-05-27T01:40:54;7.32;;;2.20;;
22017;SDS011;11173;51.050;7.108;2023-05-27T01:50:55;8.85;;;2.47;;
22017;SDS011;11173;51.050;7.108;2023-05-27T02:10:56;4.53;;;1.80;;
22017;SDS011;11173;51.050;7.108;2023-05-27T02:20:56;2.83;;;1.83;;
22017;SDS011;11173;51.050;7.108;2023-05-27T02:30:57;3.33;;;1.95;;
22017;SDS011;11173;51.050;7.108;2023-05-27T02:40:58;4.07;;;1.50;;
22017;SDS011;11173;51.050;7.108;2023-05-27T03:00:58;3.70;;;1.33;;
22017;SDS011;11173;51.050;7.108;2023-05-27T03:10:59;3.85;;;1.38;;
22017;SDS011;11173;51.050;7.108;2023-05-27T03:20:59;3.55;;;1.63;;
22017;SDS011;11173;51.050;7.108;2023-05-27T03:31:01;3.50;;;1.40;;
22017;SDS011;11173;51.050;7.108;2023-05-27T03:41:03;3.95;;;1.50;;
22017;SDS011;11173;51.050;7.108;2023-05-27T03:51:03;0.73;;;0.73;;
22017;SDS011;11173;51.050;7.108;2023-05-27T04:01:04;0.65;;;0.40;;
22017;SDS011;11173;51.050;7.108;2023-05-27T04:11:05;1.33;;;0.63;;
22017;SDS011;11173;51.050;7.108;2023-05-27T04:21:06;2.72;;;1.30;;
22017;SDS011;11173;51.050;7.108;2023-05-27T04:31:08;5.35;;;2.10;;
22017;SDS011;11173;51.050;7.108;2023-05-27T04:41:12;5.18;;;2.05;;
22017;SDS011;11173;51.050;7.108;2023-05-27T05:01:15;3.35;;;1.90;;
22017;SDS011;11173;51.050;7.108;2023-05-27T05:11:20;4.43;;;1.98;;
22017;SDS011;11173;51.050;7.108;2023-05-27T05:31:21;2.72;;;1.33;;
22017;SDS011;11173;51.050;7.108;2023-05-27T05:41:21;2.88;;;1.20;;
22017;SDS011;11173;51.050;7.108;2023-05-27T05:51:22;1.85;;;1.05;;
22017;SDS011;11173;51.050;7.108;2023-05-27T06:01:22;1.23;;;0.90;;
22017;SDS011;11173;51.050;7.108;2023-05-27T06:11:22;1.27;;;0.70;;
22017;SDS011;11173;51.050;7.108;2023-05-27T06:21:23;2.47;;;0.75;;
22017;SDS011;11173;51.050;7.108;2023-05-27T06:31:23;1.85;;;1.00;;
22017;SDS011;11173;51.050;7.108;2023-05-27T06:41:24;1.00;;;0.55;;
22017;SDS011;11173;51.050;7.108;2023-05-27T06:51:25;1.50;;;0.80;;
22017;SDS011;11173;51.050;7.108;2023-05-27T07:01:27;3.00;;;1.35;;
22017;SDS011;11173;51.050;7.108;2023-05-27T07:11:27;2.75;;;1.20;;
22017;SDS011;11173;51.050;7.108;2023-05-27T07:21:27;1.20;;;0.95;;
22017;SDS011;11173;51.050;7.108;2023-05-27T07:31:28;2.28;;;1.15;;
22017;SDS011;11173;51.050;7.108;2023-05-27T07:41:29;0.93;;;0.70;;
22017;SDS011;11173;51.050;7.108;2023-05-27T07:51:29;1.67;;;1.00;;
22017;SDS011;11173;51.050;7.108;2023-05-27T08:01:31;2.45;;;0.90;;
22017;SDS011;11173;51.050;7.108;2023-05-27T08:11:32;0.68;;;0.50;;
22017;SDS011;11173;51.050;7.108;2023-05-27T08:21:33;2.60;;;1.30;;
22017;SDS011;11173;51.050;7.108;2023-05-27T08:31:33;2.13;;;1.05;;
22017;SDS011;11173;51.050;7.108;2023-05-27T08:41:33;3.17;;;1.90;;
22017;SDS011;11173;51.050;7.108;2023-05-27T08:51:35;2.90;;;1.50;;
22017;SDS011;11173;51.050;7.108;2023-05-27T09:01:39;5.18;;;1.65;;
22017;SDS011;11173;51.050;7.108;2023-05-27T09:11:41;7.55;;;1.90;;
22017;SDS011;11173;51.050;7.108;2023-05-27T09:21:42;1.67;;;1.02;;
22017;SDS011;11173;51.050;7.108;2023-05-27T09:31:42;1.33;;;0.85;;
22017;SDS011;11173;51.050;7.108;2023-05-27T09:41:54;3.90;;;1.50;;
22017;SDS011;11173;51.050;7.108;2023-05-27T09:51:56;3.90;;;1.48;;
22017;SDS011;11173;51.050;7.108;2023-05-27T10:01:57;2.67;;;1.17;;
22017;SDS011;11173;51.050;7.108;2023-05-27T10:12:00;3.42;;;1.60;;
22017;SDS011;11173;51.050;7.108;2023-05-27T10:22:08;4.75;;;1.80;;
22017;SDS011;11173;51.050;7.108;2023-05-27T10:32:10;1.92;;;1.13;;
22017;SDS011;11173;51.050;7.108;2023-05-27T10:42:11;1.95;;;0.77;;
22017;SDS011;11173;51.050;7.108;2023-05-27T10:52:22;2.58;;;1.45;;
22017;SDS011;11173;51.050;7.108;2023-05-27T11:02:28;2.25;;;1.33;;
22017;SDS011;11173;51.050;7.108;2023-05-27T11:12:35;3.95;;;1.77;;
22017;SDS011;11173;51.050;7.108;2023-05-27T11:22:35;8.17;;;2.33;;
22017;SDS011;11173;51.050;7.108;2023-05-27T11:32:37;1.92;;;1.35;;
22017;SDS011;11173;51.050;7.108;2023-05-27T11:42:42;1.98;;;1.17;;
22017;SDS011;11173;51.050;7.108;2023-05-27T11:52:50;3.15;;;1.60;;
22017;SDS011;11173;51.050;7.108;2023-05-27T12:02:54;4.22;;;1.60;;
22017;SDS011;11173;51.050;7.108;2023-05-27T12:13:04;1.55;;;1.23;;
22017;SDS011;11173;51.050;7.108;2023-05-27T12:23:05;1.98;;;1.48;;
22017;SDS011;11173;51.050;7.108;2023-05-27T12:33:06;1.10;;;1.00;;
22017;SDS011;11173;51.050;7.108;2023-05-27T12:43:06;3.78;;;1.75;;
22017;SDS011;11173;51.050;7.108;2023-05-27T12:53:10;2.78;;;1.45;;
22017;SDS011;11173;51.050;7.108;2023-05-27T13:03:10;4.70;;;1.63;;
22017;SDS011;11173;51.050;7.108;2023-05-27T13:13:11;3.38;;;1.65;;
22017;SDS011;11173;51.050;7.108;2023-05-27T13:23:11;2.40;;;1.58;;
22017;SDS011;11173;51.050;7.108;2023-05-27T13:33:12;1.88;;;1.40;;
22017;SDS011;11173;51.050;7.108;2023-05-27T13:43:12;1.52;;;1.42;;
22017;SDS011;11173;51.050;7.108;2023-05-27T13:53:12;2.67;;;1.60;;
22017;SDS011;11173;51.050;7.108;2023-05-27T14:03:13;2.40;;;1.92;;
22017;SDS011;11173;51.050;7.108;2023-05-27T14:13:13;1.25;;;1.10;;
22017;SDS011;11173;51.050;7.108;2023-05-27T14:23:14;1.47;;;1.37;;
22017;SDS011;11173;51.050;7.108;2023-05-27T14:33:16;1.33;;;1.23;;
22017;SDS011;11173;51.050;7.108;2023-05-27T14:43:16;1.15;;;0.80;;
22017;SDS011;11173;51.050;7.108;2023-05-27T14:53:17;0.40;;;0.40;;
22017;SDS011;11173;51.050;7.108;2023-05-27T15:03:17;1.55;;;1.13;;
22017;SDS011;11173;51.050;7.108;2023-05-27T15:13:18;4.53;;;2.13;;
22017;SDS011;11173;51.050;7.108;2023-05-27T15:23:19;3.08;;;2.42;;
22017;SDS011;11173;51.050;7.108;2023-05-27T15:33:20;2.75;;;1.85;;
22017;SDS011;11173;51.050;7.108;2023-05-27T15:43:20;2.55;;;1.30;;
22017;SDS011;11173;51.050;7.108;2023-05-27T15:53:21;2.78;;;1.70;;
22017;SDS011;11173;51.050;7.108;2023-05-27T16:03:23;2.33;;;1.70;;
22017;SDS011;11173;51.050;7.108;2023-05-27T16:13:24;4.35;;;1.90;;
22017;SDS011;11173;51.050;7.108;2023-05-27T16:23:24;2.38;;;2.03;;
22017;SDS011;11173;51.050;7.108;2023-05-27T16:33:25;4.00;;;2.22;;
22017;SDS011;11173;51.050;7.108;2023-05-27T16:43:26;4.22;;;2.17;;
22017;SDS011;11173;51.050;7.108;2023-05-27T16:53:26;3.42;;;2.30;;
22017;SDS011;11173;51.050;7.108;2023-05-27T17:03:26;3.40;;;2.05;;
22017;SDS011;11173;51.050;7.108;2023-05-27T17:13:27;6.22;;;2.78;;
22017;SDS011;11173;51.050;7.108;2023-05-27T17:23:28;4.63;;;1.77;;
22017;SDS011;11173;51.050;7.108;2023-05-27T17:33:28;5.30;;;2.47;;
22017;SDS011;11173;51.050;7.108;2023-05-27T17:43:29;5.80;;;2.23;;
22017;SDS011;11173;51.050;7.108;2023-05-27T17:53:32;3.65;;;2.20;;
22017;SDS011;11173;51.050;7.108;2023-05-27T18:03:36;2.13;;;1.70;;
22017;SDS011;11173;51.050;7.108;2023-05-27T18:13:36;5.40;;;2.92;;
22017;SDS011;11173;51.050;7.108;2023-05-27T18:23:38;2.75;;;1.80;;
22017;SDS011;11173;51.050;7.108;2023-05-27T18:33:38;4.57;;;2.50;;
22017;SDS011;11173;51.050;7.108;2023-05-27T18:43:39;4.97;;;2.45;;
22017;SDS011;11173;51.050;7.108;2023-05-27T18:53:39;2.53;;;1.80;;
22017;SDS011;11173;51.050;7.108;2023-05-27T19:03:41;4.38;;;2.33;;
22017;SDS011;11173;51.050;7.108;2023-05-27T19:13:42;2.53;;;1.73;;
22017;SDS011;11173;51.050;7.108;2023-05-27T19:23:42;4.85;;;2.53;;
22017;SDS011;11173;51.050;7.108;2023-05-27T19:33:42;5.30;;;2.50;;
22017;SDS011;11173;51.050;7.108;2023-05-27T19:43:44;4.15;;;2.40;;
22017;SDS011;11173;51.050;7.108;2023-05-27T19:53:53;4.28;;;2.67;;
22017;SDS011;11173;51.050;7.108;2023-05-27T20:03:57;3.05;;;2.00;;
22017;SDS011;11173;51.050;7.108;2023-05-27T20:13:59;2.45;;;2.08;;
22017;SDS011;11173;51.050;7.108;2023-05-27T20:24:00;2.85;;;2.30;;
22017;SDS011;11173;51.050;7.108;2023-05-27T20:54:01;2.90;;;1.90;;
22017;SDS011;11173;51.050;7.108;2023-05-27T21:14:02;2.47;;;1.58;;
22017;SDS011;11173;51.050;7.108;2023-05-27T21:24:03;2.90;;;1.90;;
22017;SDS011;11173;51.050;7.108;2023-05-27T21:34:04;2.90;;;1.90;;
22017;SDS011;11173;51.050;7.108;2023-05-27T21:44:04;3.80;;;2.25;;
22017;SDS011;11173;51.050;7.108;2023-05-27T22:04:05;4.47;;;2.22;;
22017;SDS011;11173;51.050;7.108;2023-05-27T22:14:07;2.28;;;1.80;;
22017;SDS011;11173;51.050;7.108;2023-05-27T22:34:08;2.05;;;1.55;;
22017;SDS011;11173;51.050;7.108;2023-05-27T22:44:09;3.83;;;1.95;;
22017;SDS011;11173;51.050;7.108;2023-05-27T22:54:10;1.40;;;1.30;;
22017;SDS011;11173;51.050;7.108;2023-05-27T23:04:10;2.28;;;2.03;;
22017;SDS011;11173;51.050;7.108;2023-05-27T23:24:11;2.00;;;1.70;;
22017;SDS011;11173;51.050;7.108;2023-05-27T23:44:13;3.63;;;2.20;;
